createdAt,value
2024-02-15T00:00:37.525Z,47.72
2024-02-15T00:01:37.496Z,43.41
2024-02-15T00:02:37.509Z,42.64
2024-02-15T00:03:48.416Z,46.91
2024-02-15T00:04:37.563Z,45.93
2024-02-15T00:05:37.532Z,46.14
2024-02-15T00:06:37.536Z,49.05
2024-02-15T00:07:37.501Z,48.50
2024-02-15T00:08:37.564Z,39.67
2024-02-15T00:09:37.501Z,50.43
2024-02-15T00:10:37.474Z,51.35
2024-02-15T00:11:37.501Z,39.94
2024-02-15T00:12:37.485Z,40.17
2024-02-15T00:13:37.478Z,52.74
2024-02-15T00:14:37.479Z,47.17
2024-02-15T00:15:37.435Z,55.12
2024-02-15T00:16:37.433Z,44.99
2024-02-15T00:17:37.655Z,40.74
2024-02-15T00:18:37.589Z,54.08
2024-02-15T00:19:37.512Z,47.45
2024-02-15T00:20:37.440Z,51.68
2024-02-15T00:21:37.455Z,58.16
2024-02-15T00:22:37.415Z,50.37
2024-02-15T00:23:37.413Z,55.38
2024-02-15T00:24:37.370Z,59.00
2024-02-15T00:25:37.361Z,42.49
2024-02-15T00:26:37.412Z,48.10
2024-02-15T00:27:38.362Z,44.69
2024-02-15T00:28:37.361Z,41.00
2024-02-15T00:29:37.364Z,45.50
2024-02-15T00:30:37.313Z,63.36
2024-02-15T00:31:37.404Z,51.48
2024-02-15T00:32:37.358Z,40.84
2024-02-15T00:33:37.412Z,53.37
2024-02-15T00:34:37.406Z,45.18
2024-02-15T00:35:37.386Z,45.76
2024-02-15T00:36:37.311Z,48.92
2024-02-15T00:37:37.265Z,44.34
2024-02-15T00:38:37.297Z,58.62
2024-02-15T00:39:37.273Z,61.16
2024-02-15T00:40:37.254Z,56.05
2024-02-15T00:42:09.224Z,56.51
2024-02-15T00:42:37.227Z,41.38
2024-02-15T00:43:37.344Z,40.00
2024-02-15T00:44:37.217Z,41.25
2024-02-15T00:45:37.208Z,46.42
2024-02-15T00:46:37.212Z,60.57
2024-02-15T00:47:37.279Z,55.76
2024-02-15T00:48:37.254Z,55.60
2024-02-15T00:49:37.292Z,46.71
2024-02-15T00:50:37.300Z,57.20
2024-02-15T00:51:37.174Z,47.69
2024-02-15T00:52:37.141Z,48.23
2024-02-15T00:53:37.186Z,61.27
2024-02-15T00:54:37.124Z,56.57
2024-02-15T00:55:37.122Z,50.54
2024-02-15T00:56:37.141Z,52.16
2024-02-15T00:57:37.107Z,55.74
2024-02-15T00:58:37.105Z,57.17
2024-02-15T00:59:37.470Z,48.02
2024-02-15T01:00:37.082Z,44.18
2024-02-15T01:01:37.092Z,40.12
2024-02-15T01:02:37.134Z,52.55
2024-02-15T01:03:37.079Z,57.84
2024-02-15T01:04:37.095Z,59.04
2024-02-15T01:05:37.080Z,47.57
2024-02-15T01:06:37.137Z,46.16
2024-02-15T01:07:37.017Z,53.32
2024-02-15T01:08:37.052Z,42.75
2024-02-15T01:09:37.006Z,58.40
2024-02-15T01:10:37.025Z,46.63
2024-02-15T01:11:37.034Z,47.75
2024-02-15T01:12:36.986Z,44.23
2024-02-15T01:13:36.975Z,39.53
2024-02-15T01:14:36.995Z,42.37
2024-02-15T01:15:36.993Z,44.48
2024-02-15T01:16:36.990Z,51.59
2024-02-15T01:17:37.074Z,40.26
2024-02-15T01:18:37.060Z,46.48
2024-02-15T01:19:36.972Z,48.68
2024-02-15T01:20:36.960Z,44.84
2024-02-15T01:21:36.921Z,57.56
2024-02-15T01:22:36.906Z,43.61
2024-02-15T01:23:36.907Z,40.32
2024-02-15T01:24:36.927Z,48.60
2024-02-15T01:25:36.913Z,39.78
2024-02-15T01:26:36.907Z,52.61
2024-02-15T01:27:36.862Z,46.15
2024-02-15T01:28:36.858Z,39.72
2024-02-15T01:29:36.957Z,42.09
2024-02-15T01:30:36.855Z,58.01
2024-02-15T01:31:36.843Z,57.13
2024-02-15T01:32:36.881Z,49.65
2024-02-15T01:33:36.859Z,42.03
2024-02-15T01:34:36.920Z,55.98
2024-02-15T01:35:36.821Z,50.02
2024-02-15T01:36:36.801Z,43.88
2024-02-15T01:37:36.795Z,40.38
2024-02-15T01:38:36.824Z,51.49
2024-02-15T01:39:36.794Z,43.11
2024-02-15T01:40:36.758Z,50.53
2024-02-15T01:41:36.777Z,41.64
2024-02-15T01:42:36.739Z,48.48
2024-02-15T01:43:36.759Z,57.04
2024-02-15T01:44:36.797Z,52.16
2024-02-15T01:45:36.715Z,46.70
2024-02-15T01:46:36.715Z,54.03
2024-02-15T01:47:36.733Z,55.50
2024-02-15T01:48:36.838Z,44.29
2024-02-15T01:49:36.735Z,45.15
2024-02-15T01:50:36.697Z,52.32
2024-02-15T01:51:36.680Z,48.42
2024-02-15T01:52:36.662Z,54.68
2024-02-15T01:53:36.745Z,48.99
2024-02-15T01:54:36.667Z,47.98
2024-02-15T01:55:36.696Z,53.15
2024-02-15T01:56:36.666Z,40.78
2024-02-15T01:57:36.659Z,42.86
2024-02-15T01:58:36.655Z,53.35
2024-02-15T01:59:36.646Z,49.02
2024-02-15T02:00:36.643Z,45.41
2024-02-15T02:01:36.595Z,48.01
2024-02-15T02:02:36.648Z,52.12
2024-02-15T02:03:36.609Z,51.97
2024-02-15T02:04:36.577Z,52.01
2024-02-15T02:05:36.590Z,60.99
2024-02-15T02:06:36.578Z,46.53
2024-02-15T02:07:36.574Z,40.53
2024-02-15T02:08:36.587Z,52.04
2024-02-15T02:09:36.542Z,43.56
2024-02-15T02:10:36.524Z,54.41
2024-02-15T02:11:36.578Z,59.69
2024-02-15T02:12:36.539Z,48.51
2024-02-15T02:13:36.533Z,42.90
2024-02-15T02:14:36.524Z,40.45
2024-02-15T02:15:36.488Z,57.35
2024-02-15T02:16:36.518Z,43.36
2024-02-15T02:17:36.607Z,46.67
2024-02-15T02:18:36.567Z,53.74
2024-02-15T02:19:36.488Z,50.18
2024-02-15T02:20:36.504Z,47.75
2024-02-15T02:21:36.462Z,47.76
2024-02-15T02:22:36.436Z,54.92
2024-02-15T02:23:36.437Z,60.77
2024-02-15T02:24:36.414Z,44.93
2024-02-15T02:25:36.557Z,39.47
2024-02-15T02:26:36.649Z,39.58
2024-02-15T02:27:36.394Z,39.54
2024-02-15T02:28:36.480Z,44.39
2024-02-15T02:29:36.397Z,60.09
2024-02-15T02:30:36.396Z,51.88
2024-02-15T02:31:36.389Z,42.56
2024-02-15T02:32:36.397Z,52.74
2024-02-15T02:33:36.561Z,54.58
2024-02-15T02:34:36.381Z,49.14
2024-02-15T02:35:36.428Z,45.17
2024-02-15T02:36:36.322Z,59.43
2024-02-15T02:37:36.318Z,46.49
2024-02-15T02:38:36.349Z,63.21
2024-02-15T02:39:36.425Z,55.19
2024-02-15T02:40:36.321Z,63.57
2024-02-15T02:41:36.321Z,47.40
2024-02-15T02:42:36.281Z,41.57
2024-02-15T02:43:36.281Z,45.47
2024-02-15T02:44:36.279Z,63.66
2024-02-15T02:45:36.283Z,45.24
2024-02-15T02:46:36.252Z,48.05
2024-02-15T02:47:36.283Z,54.55
2024-02-15T02:48:36.288Z,60.52
2024-02-15T02:49:36.248Z,47.14
2024-02-15T02:50:36.266Z,39.32
2024-02-15T02:51:36.226Z,39.50
2024-02-15T02:52:36.201Z,46.78
2024-02-15T02:53:36.260Z,44.96
2024-02-15T02:54:36.212Z,55.34
2024-02-15T02:55:36.199Z,59.16
2024-02-15T02:56:36.177Z,53.87
2024-02-15T02:57:36.165Z,45.75
2024-02-15T02:58:36.157Z,50.77
2024-02-15T02:59:36.196Z,56.42
2024-02-15T03:00:36.137Z,40.83
2024-02-15T03:01:36.135Z,45.21
2024-02-15T03:02:36.150Z,40.78
2024-02-15T03:03:36.111Z,54.88
2024-02-15T03:04:36.258Z,48.16
2024-02-15T03:05:36.158Z,56.76
2024-02-15T03:06:36.157Z,58.58
2024-02-15T03:07:36.086Z,41.06
2024-02-15T03:08:36.131Z,45.30
2024-02-15T03:09:36.095Z,50.58
2024-02-15T03:10:36.074Z,56.75
2024-02-15T03:11:36.086Z,46.38
2024-02-15T03:12:36.044Z,56.02
2024-02-15T03:13:36.064Z,49.05
2024-02-15T03:14:36.037Z,49.25
2024-02-15T03:15:36.015Z,51.95
2024-02-15T03:16:36.008Z,44.73
2024-02-15T03:17:36.043Z,51.25
2024-02-15T03:18:36.081Z,58.17
2024-02-15T03:19:36.008Z,50.44
2024-02-15T03:20:36.022Z,51.99
2024-02-15T03:21:35.974Z,54.66
2024-02-15T03:22:36.002Z,50.27
2024-02-15T03:23:36.000Z,42.60
2024-02-15T03:24:35.944Z,53.35
2024-02-15T03:25:35.946Z,61.14
2024-02-15T03:26:35.959Z,44.31
2024-02-15T03:27:35.967Z,45.30
2024-02-15T03:28:35.908Z,47.76
2024-02-15T03:29:35.932Z,50.72
2024-02-15T03:30:35.903Z,50.89
2024-02-15T03:31:35.890Z,60.95
2024-02-15T03:32:35.941Z,59.38
2024-02-15T03:33:37.082Z,50.59
2024-02-15T03:34:35.889Z,43.42
2024-02-15T03:35:36.220Z,52.86
2024-02-15T03:36:35.850Z,55.88
2024-02-15T03:37:35.859Z,54.06
2024-02-15T03:38:35.855Z,61.67
2024-02-15T03:39:35.821Z,55.42
2024-02-15T03:40:35.816Z,53.45
2024-02-15T03:41:35.845Z,46.15
2024-02-15T03:42:35.833Z,40.50
2024-02-15T03:43:35.790Z,48.01
2024-02-15T03:44:35.784Z,52.07
2024-02-15T03:45:36.782Z,55.40
2024-02-15T03:46:35.786Z,62.09
2024-02-15T03:47:35.801Z,56.40
2024-02-15T03:48:35.839Z,55.32
2024-02-15T03:49:35.787Z,50.74
2024-02-15T03:50:35.740Z,50.12
2024-02-15T03:51:35.746Z,58.17
2024-02-15T03:52:35.715Z,65.90
2024-02-15T03:53:35.714Z,51.29
2024-02-15T03:54:35.710Z,50.44
2024-02-15T03:55:35.686Z,60.25
2024-02-15T03:56:35.738Z,51.57
2024-02-15T03:57:35.674Z,52.41
2024-02-15T03:58:35.675Z,39.79
2024-02-15T03:59:35.677Z,46.02
2024-02-15T04:00:35.681Z,49.97
2024-02-15T04:01:35.668Z,49.97
2024-02-15T04:02:35.676Z,55.99
2024-02-15T04:03:35.635Z,57.14
2024-02-15T04:04:35.642Z,58.18
2024-02-15T04:05:35.720Z,57.88
2024-02-15T04:06:35.726Z,60.35
2024-02-15T04:07:35.599Z,56.23
2024-02-15T04:08:35.594Z,51.77
2024-02-15T04:09:35.584Z,54.27
2024-02-15T04:10:35.599Z,53.62
2024-02-15T04:11:35.599Z,53.61
2024-02-15T04:12:35.546Z,61.47
2024-02-15T04:13:35.563Z,54.00
2024-02-15T04:14:35.583Z,51.91
2024-02-15T04:15:35.549Z,53.60
2024-02-15T04:16:39.059Z,60.93
2024-02-15T04:17:36.991Z,57.67
2024-02-15T04:18:35.558Z,52.37
2024-02-15T04:19:35.556Z,55.40
2024-02-15T04:20:35.492Z,59.04
2024-02-15T04:21:35.476Z,60.82
2024-02-15T04:22:35.473Z,59.22
2024-02-15T04:23:35.481Z,57.00
2024-02-15T04:24:35.479Z,57.76
2024-02-15T04:25:35.388Z,60.05
2024-02-15T04:26:35.445Z,63.51
2024-02-15T04:27:35.479Z,58.11
2024-02-15T04:28:35.363Z,60.32
2024-02-15T04:29:35.430Z,63.60
2024-02-15T04:30:35.358Z,57.83
2024-02-15T04:31:35.388Z,54.11
2024-02-15T04:32:35.913Z,62.29
2024-02-15T04:33:35.504Z,61.26
2024-02-15T04:34:35.502Z,64.04
2024-02-15T04:35:35.337Z,61.70
2024-02-15T04:36:35.387Z,58.35
2024-02-15T04:37:35.308Z,58.82
2024-02-15T04:38:35.358Z,58.76
2024-02-15T04:39:35.315Z,64.90
2024-02-15T04:40:35.268Z,59.91
2024-02-15T04:41:35.295Z,58.62
2024-02-15T04:42:35.274Z,64.82
2024-02-15T04:43:35.277Z,61.51
2024-02-15T04:44:35.277Z,58.88
2024-02-15T04:45:35.229Z,64.64
2024-02-15T04:46:35.233Z,57.78
2024-02-15T04:47:35.342Z,61.01
2024-02-15T04:48:35.348Z,61.13
2024-02-15T04:49:35.230Z,59.86
2024-02-15T04:50:35.230Z,57.04
2024-02-15T04:51:35.186Z,57.93
2024-02-15T04:52:35.227Z,59.52
2024-02-15T04:53:35.237Z,66.92
2024-02-15T04:54:35.181Z,57.73
2024-02-15T04:55:35.155Z,53.90
2024-02-15T04:56:35.167Z,59.65
2024-02-15T04:57:35.161Z,62.82
2024-02-15T04:58:35.128Z,62.29
2024-02-15T04:59:35.136Z,61.23
2024-02-15T05:00:35.145Z,59.43
2024-02-15T05:01:35.118Z,54.38
2024-02-15T05:02:35.135Z,59.50
2024-02-15T05:03:35.138Z,61.83
2024-02-15T05:04:35.091Z,61.40
2024-02-15T05:05:35.249Z,59.57
2024-02-15T05:06:35.403Z,59.65
2024-02-15T05:07:35.312Z,59.98
2024-02-15T05:08:35.059Z,52.94
2024-02-15T05:09:35.036Z,62.09
2024-02-15T05:10:35.022Z,58.35
2024-02-15T05:11:35.059Z,59.94
2024-02-15T05:12:35.016Z,56.69
2024-02-15T05:13:35.007Z,60.30
2024-02-15T05:14:35.585Z,56.39
2024-02-15T05:15:34.996Z,59.95
2024-02-15T05:16:35.016Z,61.67
2024-02-15T05:17:35.160Z,54.59
2024-02-15T05:18:35.063Z,60.27
2024-02-15T05:19:35.007Z,58.46
2024-02-15T05:20:34.990Z,56.46
2024-02-15T05:21:34.969Z,63.10
2024-02-15T05:22:34.927Z,63.21
2024-02-15T05:23:34.955Z,61.81
2024-02-15T05:24:34.922Z,53.75
2024-02-15T05:25:34.934Z,58.85
2024-02-15T05:26:34.918Z,62.23
2024-02-15T05:27:34.891Z,59.27
2024-02-15T05:28:34.903Z,59.23
2024-02-15T05:29:34.898Z,59.72
2024-02-15T05:30:34.891Z,62.71
2024-02-15T05:31:34.868Z,59.85
2024-02-15T05:32:34.918Z,57.94
2024-02-15T05:33:34.965Z,57.14
2024-02-15T05:34:35.017Z,59.65
2024-02-15T05:35:34.869Z,60.71
2024-02-15T05:36:34.817Z,60.89
2024-02-15T05:37:34.810Z,58.32
2024-02-15T05:38:34.818Z,64.51
2024-02-15T05:39:34.819Z,62.28
2024-02-15T05:40:34.801Z,59.53
2024-02-15T05:41:34.875Z,62.33
2024-02-15T05:42:34.768Z,62.12
2024-02-15T05:43:37.137Z,61.73
2024-02-15T05:44:34.792Z,62.28
2024-02-15T05:45:35.165Z,62.03
2024-02-15T05:46:34.752Z,62.23
2024-02-15T05:47:34.856Z,63.00
2024-02-15T05:48:35.072Z,62.99
2024-02-15T05:49:34.830Z,64.09
2024-02-15T05:50:34.764Z,60.07
2024-02-15T05:51:34.766Z,64.40
2024-02-15T05:52:34.711Z,62.47
2024-02-15T05:53:34.766Z,61.74
2024-02-15T05:54:34.715Z,63.68
2024-02-15T05:55:34.801Z,56.03
2024-02-15T05:56:34.736Z,62.51
2024-02-15T05:57:34.666Z,60.82
2024-02-15T05:58:34.666Z,61.45
2024-02-15T05:59:34.649Z,65.01
2024-02-15T06:00:34.884Z,60.96
2024-02-15T06:01:34.632Z,62.47
2024-02-15T06:02:34.617Z,63.07
2024-02-15T06:03:34.674Z,63.48
2024-02-15T06:04:34.709Z,66.82
2024-02-15T06:05:34.663Z,63.59
2024-02-15T06:06:34.695Z,60.99
2024-02-15T06:07:34.811Z,57.29
2024-02-15T06:08:34.623Z,64.35
2024-02-15T06:09:34.569Z,64.13
2024-02-15T06:10:34.553Z,63.38
2024-02-15T06:11:34.588Z,60.31
2024-02-15T06:12:34.551Z,61.43
2024-02-15T06:13:35.552Z,64.04
2024-02-15T06:14:34.537Z,63.43
2024-02-15T06:15:34.514Z,64.92
2024-02-15T06:16:34.505Z,61.42
2024-02-15T06:17:34.568Z,63.69
2024-02-15T06:18:34.704Z,64.73
2024-02-15T06:19:34.491Z,60.99
2024-02-15T06:20:34.542Z,63.42
2024-02-15T06:21:34.554Z,62.16
2024-02-15T06:22:34.483Z,65.62
2024-02-15T06:23:34.530Z,62.25
2024-02-15T06:24:34.448Z,62.18
2024-02-15T06:25:34.435Z,62.94
2024-02-15T06:26:34.460Z,60.65
2024-02-15T06:27:34.437Z,64.70
2024-02-15T06:28:34.413Z,63.36
2024-02-15T06:29:34.431Z,62.52
2024-02-15T06:30:34.392Z,63.30
2024-02-15T06:31:34.443Z,62.73
2024-02-15T06:32:34.513Z,63.64
2024-02-15T06:33:34.649Z,62.44
2024-02-15T06:34:34.417Z,62.59
2024-02-15T06:35:34.412Z,61.97
2024-02-15T06:36:34.375Z,63.91
2024-02-15T06:37:34.347Z,64.93
2024-02-15T06:38:34.377Z,64.00
2024-02-15T06:39:34.359Z,63.26
2024-02-15T06:40:34.322Z,59.85
2024-02-15T06:42:06.338Z,62.64
2024-02-15T06:42:34.312Z,62.71
2024-02-15T06:43:34.292Z,63.93
2024-02-15T06:44:34.316Z,62.23
2024-02-15T06:45:34.309Z,63.08
2024-02-15T06:46:34.297Z,63.28
2024-02-15T06:47:34.305Z,65.48
2024-02-15T06:48:34.375Z,61.74
2024-02-15T06:49:34.322Z,61.47
2024-02-15T06:50:34.302Z,63.96
2024-02-15T06:51:34.231Z,63.80
2024-02-15T06:52:35.225Z,64.48
2024-02-15T06:53:34.264Z,65.77
2024-02-15T06:54:34.220Z,61.94
2024-02-15T06:55:34.222Z,62.58
2024-02-15T06:56:34.212Z,61.14
2024-02-15T06:57:34.176Z,63.36
2024-02-15T06:58:34.176Z,62.98
2024-02-15T06:59:34.332Z,63.05
2024-02-15T07:00:34.213Z,64.10
2024-02-15T07:01:34.150Z,61.79
2024-02-15T07:02:34.232Z,63.72
2024-02-15T07:03:34.161Z,63.86
2024-02-15T07:04:34.401Z,60.73
2024-02-15T07:05:34.139Z,63.57
2024-02-15T07:06:34.179Z,58.35
2024-02-15T07:07:34.104Z,63.09
2024-02-15T07:08:34.136Z,61.19
2024-02-15T07:09:34.111Z,59.23
2024-02-15T07:10:34.072Z,60.21
2024-02-15T07:11:34.086Z,60.41
2024-02-15T07:12:34.112Z,63.08
2024-02-15T07:13:34.075Z,60.42
2024-02-15T07:14:34.187Z,63.63
2024-02-15T07:15:34.080Z,60.66
2024-02-15T07:16:34.026Z,57.98
2024-02-15T07:17:34.102Z,64.11
2024-02-15T07:18:34.179Z,59.86
2024-02-15T07:19:34.078Z,61.83
2024-02-15T07:20:34.104Z,64.13
2024-02-15T07:21:33.989Z,63.01
2024-02-15T07:22:33.998Z,58.67
2024-02-15T07:23:37.020Z,60.64
2024-02-15T07:24:35.051Z,58.22
2024-02-15T07:25:33.961Z,61.97
2024-02-15T07:26:33.966Z,61.17
2024-02-15T07:27:33.944Z,62.11
2024-02-15T07:28:33.965Z,61.32
2024-02-15T07:29:34.032Z,60.62
2024-02-15T07:30:34.002Z,61.64
2024-02-15T07:31:33.919Z,60.10
2024-02-15T07:32:34.022Z,58.77
2024-02-15T07:33:34.039Z,58.37
2024-02-15T07:34:33.991Z,63.79
2024-02-15T07:35:33.901Z,64.98
2024-02-15T07:36:33.882Z,60.95
2024-02-15T07:37:33.867Z,64.85
2024-02-15T07:38:33.950Z,61.72
2024-02-15T07:39:33.985Z,63.80
2024-02-15T07:40:33.886Z,65.10
2024-02-15T07:41:33.930Z,62.03
2024-02-15T07:42:33.862Z,61.68
2024-02-15T07:43:33.854Z,64.22
2024-02-15T07:44:33.929Z,66.22
2024-02-15T07:45:33.806Z,65.26
2024-02-15T07:46:33.794Z,64.76
2024-02-15T07:47:34.619Z,64.61
2024-02-15T07:48:35.042Z,63.35
2024-02-15T07:49:33.941Z,58.45
2024-02-15T07:50:33.790Z,62.62
2024-02-15T07:51:33.754Z,60.70
2024-02-15T07:52:33.770Z,58.80
2024-02-15T07:53:33.764Z,59.80
2024-02-15T07:54:34.810Z,61.60
2024-02-15T07:55:33.721Z,62.25
2024-02-15T07:56:33.750Z,62.82
2024-02-15T07:57:33.723Z,64.20
2024-02-15T07:58:33.695Z,57.20
2024-02-15T07:59:33.808Z,63.41
2024-02-15T08:00:33.785Z,60.42
2024-02-15T08:01:33.778Z,56.78
2024-02-15T08:02:33.739Z,61.33
2024-02-15T08:03:33.658Z,59.12
2024-02-15T08:04:34.714Z,61.15
2024-02-15T08:05:33.744Z,60.96
2024-02-15T08:06:33.758Z,63.59
2024-02-15T08:07:33.746Z,62.54
2024-02-15T08:08:33.652Z,58.97
2024-02-15T08:09:33.607Z,62.01
2024-02-15T08:10:33.613Z,61.70
2024-02-15T08:11:33.664Z,60.51
2024-02-15T08:12:33.594Z,58.00
2024-02-15T08:13:33.582Z,63.58
2024-02-15T08:14:33.616Z,59.22
2024-02-15T08:15:33.588Z,61.99
2024-02-15T08:16:33.582Z,65.70
2024-02-15T08:17:33.642Z,58.82
2024-02-15T08:18:33.599Z,59.71
2024-02-15T08:19:33.654Z,63.28
2024-02-15T08:20:33.590Z,62.10
2024-02-15T08:21:33.522Z,54.04
2024-02-15T08:22:33.516Z,63.63
2024-02-15T08:23:33.546Z,66.75
2024-02-15T08:24:33.498Z,62.13
2024-02-15T08:25:33.530Z,62.16
2024-02-15T08:26:33.504Z,61.16
2024-02-15T08:27:33.470Z,56.92
2024-02-15T08:28:34.470Z,56.78
2024-02-15T08:29:33.567Z,60.73
2024-02-15T08:30:33.522Z,59.51
2024-02-15T08:31:33.448Z,59.22
2024-02-15T08:32:33.516Z,61.39
2024-02-15T08:33:33.717Z,60.43
2024-02-15T08:34:33.563Z,59.17
2024-02-15T08:35:33.682Z,61.23
2024-02-15T08:36:33.598Z,61.82
2024-02-15T08:37:33.409Z,61.63
2024-02-15T08:38:33.424Z,63.48
2024-02-15T08:39:33.404Z,64.66
2024-02-15T08:40:33.382Z,63.16
2024-02-15T08:41:33.459Z,64.11
2024-02-15T08:42:33.362Z,61.97
2024-02-15T08:43:33.356Z,60.45
2024-02-15T08:44:33.381Z,60.87
2024-02-15T08:45:33.637Z,56.65
2024-02-15T08:46:33.344Z,61.68
2024-02-15T08:47:33.360Z,61.41
2024-02-15T08:48:33.455Z,63.24
2024-02-15T08:49:33.422Z,58.10
2024-02-15T08:50:33.383Z,63.44
2024-02-15T08:51:33.391Z,63.12
2024-02-15T08:52:33.285Z,61.27
2024-02-15T08:53:33.377Z,62.00
2024-02-15T08:54:33.313Z,57.44
2024-02-15T08:55:33.267Z,62.70
2024-02-15T08:56:33.321Z,60.01
2024-02-15T08:57:33.242Z,60.85
2024-02-15T08:58:33.286Z,61.45
2024-02-15T08:59:34.258Z,60.67
2024-02-15T09:00:33.446Z,59.20
2024-02-15T09:01:33.211Z,61.89
2024-02-15T09:02:33.407Z,60.55
2024-02-15T09:03:33.300Z,59.59
2024-02-15T09:04:33.277Z,59.96
2024-02-15T09:05:33.212Z,61.47
2024-02-15T09:06:33.291Z,56.43
2024-02-15T09:07:33.206Z,57.48
2024-02-15T09:08:33.259Z,60.25
2024-02-15T09:09:33.146Z,59.93
2024-02-15T09:10:33.146Z,57.83
2024-02-15T09:11:33.174Z,61.95
2024-02-15T09:12:33.206Z,59.80
2024-02-15T09:13:33.111Z,60.73
2024-02-15T09:14:33.216Z,58.66
2024-02-15T09:15:33.096Z,57.19
2024-02-15T09:16:33.098Z,57.91
2024-02-15T09:17:33.117Z,62.17
2024-02-15T09:18:33.214Z,62.59
2024-02-15T09:19:33.121Z,60.49
2024-02-15T09:20:33.076Z,57.38
2024-02-15T09:21:33.046Z,57.19
2024-02-15T09:22:33.063Z,58.37
2024-02-15T09:23:33.044Z,60.05
2024-02-15T09:24:33.022Z,60.06
2024-02-15T09:25:33.014Z,60.38
2024-02-15T09:26:33.042Z,59.54
2024-02-15T09:27:33.030Z,58.40
2024-02-15T09:28:32.987Z,58.09
2024-02-15T09:29:32.995Z,59.72
2024-02-15T09:30:33.022Z,60.24
2024-02-15T09:31:32.964Z,55.02
2024-02-15T09:32:33.051Z,60.03
2024-02-15T09:33:33.028Z,55.11
2024-02-15T09:34:33.032Z,59.06
2024-02-15T09:35:32.948Z,58.08
2024-02-15T09:36:32.955Z,59.85
2024-02-15T09:37:32.949Z,58.38
2024-02-15T09:38:32.912Z,56.56
2024-02-15T09:39:32.906Z,57.05
2024-02-15T09:40:32.903Z,56.52
2024-02-15T09:41:32.917Z,59.95
2024-02-15T09:42:32.913Z,59.43
2024-02-15T09:43:32.872Z,56.57
2024-02-15T09:44:32.866Z,59.66
2024-02-15T09:45:32.860Z,59.12
2024-02-15T09:46:35.167Z,59.88
2024-02-15T09:47:33.891Z,57.54
2024-02-15T09:48:32.956Z,58.24
2024-02-15T09:49:32.902Z,55.44
2024-02-15T09:50:32.819Z,59.11
2024-02-15T09:51:32.837Z,56.55
2024-02-15T09:52:35.065Z,56.40
2024-02-15T09:53:32.794Z,58.18
2024-02-15T09:54:32.788Z,59.15
2024-02-15T09:55:32.818Z,57.51
2024-02-15T09:56:32.803Z,60.63
2024-02-15T09:57:32.768Z,60.67
2024-02-15T09:58:34.949Z,58.66
2024-02-15T09:59:33.747Z,59.27
2024-02-15T10:00:32.813Z,57.34
2024-02-15T10:01:32.734Z,62.70
2024-02-15T10:02:32.723Z,56.63
2024-02-15T10:03:32.719Z,56.87
2024-02-15T10:04:32.745Z,58.90
2024-02-15T10:05:32.761Z,58.69
2024-02-15T10:06:32.754Z,57.71
2024-02-15T10:07:32.683Z,57.37
2024-02-15T10:08:32.686Z,60.72
2024-02-15T10:09:32.724Z,57.84
2024-02-15T10:10:32.697Z,57.76
2024-02-15T10:11:32.697Z,58.34
2024-02-15T10:12:32.683Z,60.81
2024-02-15T10:13:32.650Z,58.85
2024-02-15T10:14:32.684Z,61.36
2024-02-15T10:15:33.866Z,61.46
2024-02-15T10:16:32.614Z,61.00
2024-02-15T10:17:32.661Z,57.04
2024-02-15T10:18:32.693Z,56.80
2024-02-15T10:19:32.636Z,58.68
2024-02-15T10:20:32.682Z,57.21
2024-02-15T10:21:32.710Z,58.12
2024-02-15T10:22:32.573Z,58.90
2024-02-15T10:23:32.575Z,60.20
2024-02-15T10:24:32.572Z,57.82
2024-02-15T10:25:32.542Z,59.53
2024-02-15T10:26:32.539Z,59.37
2024-02-15T10:27:32.532Z,56.82
2024-02-15T10:28:32.557Z,58.57
2024-02-15T10:29:32.542Z,56.69
2024-02-15T10:30:32.522Z,57.74
2024-02-15T10:31:32.489Z,54.13
2024-02-15T10:32:32.512Z,58.70
2024-02-15T10:33:32.791Z,60.76
2024-02-15T10:34:32.669Z,58.98
2024-02-15T10:35:32.460Z,61.73
2024-02-15T10:36:32.447Z,57.38
2024-02-15T10:37:33.445Z,62.23
2024-02-15T10:38:32.461Z,58.77
2024-02-15T10:39:32.474Z,58.69
2024-02-15T10:40:32.416Z,57.63
2024-02-15T10:41:32.424Z,58.65
2024-02-15T10:42:32.503Z,59.49
2024-02-15T10:43:32.419Z,60.27
2024-02-15T10:44:32.393Z,56.53
2024-02-15T10:45:32.419Z,57.66
2024-02-15T10:46:32.381Z,58.95
2024-02-15T10:47:32.431Z,59.03
2024-02-15T10:48:32.513Z,61.44
2024-02-15T10:49:32.468Z,52.22
2024-02-15T10:50:32.340Z,60.07
2024-02-15T10:51:32.331Z,58.79
2024-02-15T10:52:32.349Z,63.88
2024-02-15T10:53:32.375Z,58.40
2024-02-15T10:54:32.306Z,61.12
2024-02-15T10:55:32.295Z,62.19
2024-02-15T10:56:32.311Z,58.59
2024-02-15T10:57:32.309Z,60.73
2024-02-15T10:58:32.272Z,60.18
2024-02-15T10:59:32.270Z,62.02
2024-02-15T11:00:32.319Z,57.66
2024-02-15T11:01:32.274Z,59.49
2024-02-15T11:02:32.717Z,55.82
2024-02-15T11:03:32.532Z,64.20
2024-02-15T11:04:33.279Z,62.03
2024-02-15T11:05:32.274Z,62.13
2024-02-15T11:06:32.386Z,57.05
2024-02-15T11:07:32.707Z,58.36
2024-02-15T11:08:32.198Z,62.19
2024-02-15T11:09:32.188Z,60.47
2024-02-15T11:10:32.179Z,59.70
2024-02-15T11:11:32.197Z,60.93
2024-02-15T11:12:32.218Z,56.74
2024-02-15T11:13:32.163Z,58.90
2024-02-15T11:14:32.180Z,58.00
2024-02-15T11:15:32.165Z,60.87
2024-02-15T11:16:32.161Z,58.12
2024-02-15T11:17:32.145Z,58.26
2024-02-15T11:18:32.268Z,60.45
2024-02-15T11:19:32.136Z,59.48
2024-02-15T11:20:32.136Z,57.09
2024-02-15T11:21:32.098Z,61.29
2024-02-15T11:22:32.089Z,59.18
2024-02-15T11:23:36.476Z,57.19
2024-02-15T11:24:33.064Z,50.71
2024-02-15T11:25:32.085Z,61.29
2024-02-15T11:26:32.074Z,61.85
2024-02-15T11:27:32.064Z,57.01
2024-02-15T11:28:32.038Z,61.91
2024-02-15T11:29:32.032Z,59.58
2024-02-15T11:30:32.094Z,55.94
2024-02-15T11:31:33.704Z,59.84
2024-02-15T11:32:32.005Z,60.43
2024-02-15T11:33:32.185Z,62.37
2024-02-15T11:34:32.028Z,61.01
2024-02-15T11:35:32.083Z,59.90
2024-02-15T11:36:31.980Z,60.56
2024-02-15T11:37:34.408Z,60.03
2024-02-15T11:38:31.962Z,59.04
2024-02-15T11:39:31.992Z,61.17
2024-02-15T11:40:31.979Z,60.90
2024-02-15T11:41:31.937Z,61.24
2024-02-15T11:42:31.928Z,59.30
2024-02-15T11:43:34.326Z,59.18
2024-02-15T11:44:32.937Z,58.82
2024-02-15T11:45:31.934Z,59.87
2024-02-15T11:46:32.273Z,59.92
2024-02-15T11:47:31.937Z,59.47
2024-02-15T11:48:32.042Z,61.20
2024-02-15T11:49:31.975Z,58.46
2024-02-15T11:50:31.860Z,59.87
2024-02-15T11:51:32.032Z,60.01
2024-02-15T11:52:31.842Z,56.07
2024-02-15T11:53:31.858Z,60.50
2024-02-15T11:54:31.862Z,61.23
2024-02-15T11:55:31.852Z,59.29
2024-02-15T11:56:31.812Z,54.70
2024-02-15T11:57:31.890Z,59.69
2024-02-15T11:58:31.850Z,60.01
2024-02-15T11:59:31.818Z,58.27
2024-02-15T12:00:31.796Z,57.83
2024-02-15T12:01:31.780Z,58.63
2024-02-15T12:02:31.764Z,60.76
2024-02-15T12:03:31.782Z,59.70
2024-02-15T12:04:31.745Z,60.51
2024-02-15T12:05:31.752Z,59.70
2024-02-15T12:06:31.853Z,56.31
2024-02-15T12:07:31.765Z,58.69
2024-02-15T12:08:31.764Z,58.53
2024-02-15T12:09:31.697Z,57.98
2024-02-15T12:10:31.688Z,57.84
2024-02-15T12:11:31.717Z,58.05
2024-02-15T12:12:31.709Z,59.27
2024-02-15T12:13:31.688Z,60.29
2024-02-15T12:14:31.659Z,59.49
2024-02-15T12:15:34.084Z,55.99
2024-02-15T12:16:31.644Z,60.18
2024-02-15T12:17:31.689Z,59.82
2024-02-15T12:18:31.735Z,57.77
2024-02-15T12:19:31.754Z,58.91
2024-02-15T12:20:31.639Z,60.39
2024-02-15T12:21:31.626Z,66.22
2024-02-15T12:22:31.618Z,61.62
2024-02-15T12:23:31.597Z,60.47
2024-02-15T12:24:31.571Z,58.56
2024-02-15T12:25:31.582Z,58.28
2024-02-15T12:26:31.585Z,56.62
2024-02-15T12:27:31.570Z,58.70
2024-02-15T12:28:31.541Z,58.52
2024-02-15T12:29:31.534Z,58.87
2024-02-15T12:30:31.525Z,57.93
2024-02-15T12:31:31.551Z,52.85
2024-02-15T12:32:32.075Z,60.15
2024-02-15T12:33:31.595Z,60.43
2024-02-15T12:34:31.579Z,59.58
2024-02-15T12:35:31.492Z,59.07
2024-02-15T12:36:31.522Z,57.90
2024-02-15T12:37:31.479Z,59.20
2024-02-15T12:38:31.480Z,58.80
2024-02-15T12:39:31.484Z,55.96
2024-02-15T12:40:31.471Z,60.04
2024-02-15T12:41:31.460Z,62.86
2024-02-15T12:43:04.170Z,57.35
2024-02-15T12:43:31.429Z,58.14
2024-02-15T12:44:31.421Z,59.24
2024-02-15T12:45:31.525Z,59.39
2024-02-15T12:46:31.431Z,59.43
2024-02-15T12:47:31.434Z,61.44
2024-02-15T12:48:31.451Z,58.17
2024-02-15T12:49:31.403Z,59.43
2024-02-15T12:50:31.407Z,60.34
2024-02-15T12:51:31.435Z,60.92
2024-02-15T12:52:31.346Z,60.42